Time;durP1;ratioP1;P1;durP2;ratioP2;P2;SDS_P1;SDS_P2;PMS_P1;PMS_P2;Temp;Humidity;BMP_temperature;BMP_pressure;BME280_temperature;BME280_humidity;BME280_pressure;Samples;Min_cycle;Max_cycle;Signal;HPM_P1;HPM_P2
2022/07/26 00:01:24;;;;;;;7.30;4.00;;;;;;;24.20;62.37;99372.97;4855986;29;20812;-90
2022/07/26 00:03:50;;;;;;;6.43;4.28;;;;;;;24.10;62.73;99394.38;4856705;29;20037;-88
2022/07/26 00:06:16;;;;;;;7.35;4.20;;;;;;;23.82;63.37;99384.78;4856527;29;20037;-89
2022/07/26 00:08:42;;;;;;;5.97;4.65;;;;;;;23.76;63.31;99356.50;4855890;29;20124;-89
2022/07/26 00:11:08;;;;;;;6.80;4.65;;;;;;;23.69;63.52;99366.84;4871183;29;20132;-89
2022/07/26 00:13:34;;;;;;;6.60;4.18;;;;;;;23.68;63.08;99362.47;4856220;29;20150;-89
2022/07/26 00:16:00;;;;;;;6.15;3.95;;;;;;;23.81;63.33;99391.16;4856024;29;20038;-88
2022/07/26 00:18:26;;;;;;;8.05;4.10;;;;;;;23.78;63.60;99390.41;4855508;29;20432;-88
2022/07/26 00:20:52;;;;;;;5.07;3.47;;;;;;;23.68;64.01;99394.78;4855520;29;20041;-88
2022/07/26 00:23:18;;;;;;;6.13;4.18;;;;;;;23.84;63.08;99367.56;4854994;29;20064;-88
2022/07/26 00:25:44;;;;;;;6.18;3.83;;;;;;;23.69;63.29;99363.31;4855501;29;20042;-87
2022/07/26 00:28:10;;;;;;;7.05;4.63;;;;;;;23.97;62.82;99396.28;4855719;29;20037;-87
2022/07/26 00:30:37;;;;;;;6.68;3.40;;;;;;;23.78;62.82;99368.84;4855477;29;20113;-87
2022/07/26 00:33:03;;;;;;;5.88;3.50;;;;;;;23.74;63.05;99391.63;4855483;29;20497;-88
2022/07/26 00:35:28;;;;;;;5.20;3.13;;;;;;;23.89;62.64;99373.47;4855423;29;20190;-87
2022/07/26 00:37:54;;;;;;;6.13;3.67;;;;;;;24.01;61.81;99362.75;4855522;29;20128;-87
2022/07/26 00:40:19;;;;;;;5.30;3.63;;;;;;;23.97;61.72;99361.25;4855087;29;20817;-89
2022/07/26 00:42:46;;;;;;;6.40;4.38;;;;;;;24.13;61.76;99389.59;4855284;29;20026;-88
2022/07/26 00:45:12;;;;;;;5.68;4.32;;;;;;;24.10;61.32;99373.69;4854680;29;20033;-88
2022/07/26 00:47:38;;;;;;;4.60;3.22;;;;;;;24.32;61.17;99409.75;4855608;29;20037;-87
2022/07/26 00:50:07;;;;;;;4.75;2.90;;;;;;;23.80;61.23;99330.19;4855436;29;20544;-88
2022/07/26 00:52:33;;;;;;;4.60;3.80;;;;;;;24.07;61.15;99397.31;4855154;29;20060;-88
2022/07/26 00:54:58;;;;;;;6.90;3.58;;;;;;;23.82;61.36;99341.69;4854815;29;20164;-88
2022/07/26 00:57:24;;;;;;;6.25;3.85;;;;;;;24.08;61.04;99364.88;4855343;29;20487;-88
2022/07/26 00:59:50;;;;;;;7.20;4.28;;;;;;;24.28;61.19;99392.97;4855839;29;20076;-89
2022/07/26 01:02:16;;;;;;;5.35;3.47;;;;;;;24.27;60.65;99391.25;4855700;29;20052;-88
2022/07/26 01:04:45;;;;;;;5.75;3.80;;;;;;;24.19;60.42;99385.59;4855304;29;20045;-88
2022/07/26 01:07:12;;;;;;;5.40;3.33;;;;;;;24.11;60.55;99375.41;4868146;29;20052;-87
2022/07/26 01:09:39;;;;;;;4.03;2.60;;;;;;;23.80;60.95;99360.66;4869158;29;20738;-88
2022/07/26 01:12:04;;;;;;;3.85;2.58;;;;;;;23.85;61.48;99398.03;4855491;29;20033;-86
2022/07/26 01:14:30;;;;;;;6.68;4.03;;;;;;;23.52;61.41;99351.09;4853974;29;20048;-88
2022/07/26 01:16:56;;;;;;;7.00;3.95;;;;;;;23.41;62.81;99373.44;4855043;29;20519;-89
2022/07/26 01:19:22;;;;;;;7.38;2.95;;;;;;;23.51;62.94;99387.94;4855567;29;20677;-88
2022/07/26 01:21:50;;;;;;;8.77;3.50;;;;;;;23.57;62.68;99381.22;4854323;29;20033;-87
2022/07/26 01:24:16;;;;;;;4.55;3.05;;;;;;;23.49;62.52;99359.41;4854275;29;20061;-88
2022/07/26 01:26:42;;;;;;;5.53;2.85;;;;;;;23.66;61.79;99372.47;4854810;29;20828;-88
2022/07/26 01:29:09;;;;;;;4.07;2.65;;;;;;;23.64;61.73;99378.97;4855350;29;20078;-88
2022/07/26 01:31:34;;;;;;;5.38;3.55;;;;;;;23.36;61.80;99338.78;4855345;29;20034;-89
2022/07/26 01:34:00;;;;;;;5.57;3.33;;;;;;;23.58;61.45;99369.50;4854558;29;20068;-87
2022/07/26 01:36:25;;;;;;;4.05;2.50;;;;;;;23.40;61.63;99359.13;4854140;29;20417;-90
2022/07/26 01:38:51;;;;;;;5.65;4.05;;;;;;;23.45;61.40;99360.59;4854883;29;20041;-88
2022/07/26 01:41:16;;;;;;;3.97;2.58;;;;;;;23.52;61.76;99395.03;4854704;29;20037;-88
2022/07/26 01:43:42;;;;;;;6.38;3.25;;;;;;;23.26;62.01;99371.88;4854195;29;20040;-85
2022/07/26 01:46:08;;;;;;;3.55;2.50;;;;;;;23.26;61.46;99340.41;4855130;29;20484;-89
2022/07/26 01:48:35;;;;;;;2.83;1.80;;;;;;;23.27;61.86;99370.91;4854878;29;20037;-88
2022/07/26 01:51:01;;;;;;;3.95;2.20;;;;;;;23.19;62.32;99345.41;4854423;29;20041;-88
2022/07/26 01:53:27;;;;;;;5.25;2.70;;;;;;;23.39;62.02;99352.00;4854097;29;20065;-88
2022/07/26 01:55:53;;;;;;;14.40;2.50;;;;;;;23.32;62.18;99336.44;4854880;29;20084;-89
2022/07/26 01:58:19;;;;;;;3.80;2.55;;;;;;;23.58;61.69;99374.88;4854523;29;20080;-88
2022/07/26 02:00:44;;;;;;;4.97;2.92;;;;;;;23.60;61.31;99370.22;4854511;29;20045;-88
2022/07/26 02:03:10;;;;;;;6.60;3.33;;;;;;;23.81;61.23;99385.78;4854403;29;20037;-87
2022/07/26 02:05:35;;;;;;;4.63;3.00;;;;;;;23.58;61.66;99356.03;4854220;29;20053;-88
2022/07/26 02:08:01;;;;;;;4.55;2.75;;;;;;;23.60;61.42;99354.97;4854309;29;20037;-87
2022/07/26 02:13:12;;;;;;;7.23;2.93;;;;;;;23.50;60.97;99353.06;4853836;29;20614;-88
2022/07/26 02:15:38;;;;;;;6.10;3.45;;;;;;;23.62;61.02;99360.22;4854756;29;20281;-88
2022/07/26 02:18:03;;;;;;;3.83;2.70;;;;;;;23.68;61.00;99357.06;4854840;29;20428;-89
2022/07/26 02:20:32;;;;;;;4.85;2.63;;;;;;;23.84;60.50;99359.50;4858353;29;20082;-88
2022/07/26 02:22:59;;;;;;;9.55;3.50;;;;;;;23.53;60.83;99323.22;4857395;29;20519;-88
2022/07/26 02:25:24;;;;;;;4.28;2.42;;;;;;;23.51;61.00;99327.84;4857389;29;20098;-87
2022/07/26 02:27:50;;;;;;;6.35;3.17;;;;;;;23.57;61.82;99348.91;4857296;29;20497;-86
2022/07/26 02:30:15;;;;;;;4.95;3.47;;;;;;;23.54;62.30;99357.22;4857949;29;20072;-87
2022/07/26 02:32:42;;;;;;;5.32;3.92;;;;;;;23.30;62.82;99335.69;4857408;29;20073;-87
2022/07/26 02:35:09;;;;;;;13.88;5.03;;;;;;;23.44;63.80;99373.19;4857653;29;20092;-88
2022/07/26 02:37:34;;;;;;;10.38;3.72;;;;;;;23.10;64.09;99323.69;4856947;29;20055;-87
2022/07/26 02:40:01;;;;;;;6.05;4.32;;;;;;;23.21;64.26;99339.91;4871810;29;20160;-87
2022/07/26 02:42:27;;;;;;;5.80;4.47;;;;;;;23.25;64.76;99354.88;4857945;29;20060;-88
2022/07/26 02:44:52;;;;;;;8.35;5.20;;;;;;;23.29;64.58;99374.31;4857290;29;20493;-88
2022/07/26 02:47:18;;;;;;;8.43;4.72;;;;;;;23.29;64.63;99356.34;4871910;29;20033;-88
2022/07/26 02:49:44;;;;;;;6.35;3.95;;;;;;;23.35;64.50;99371.19;4856386;29;20069;-89
2022/07/26 02:52:09;;;;;;;7.70;5.35;;;;;;;23.05;63.88;99358.97;4856872;29;20115;-91
2022/07/26 02:54:35;;;;;;;7.85;5.00;;;;;;;23.15;64.42;99388.78;4872592;29;20761;-86
2022/07/26 02:57:00;;;;;;;8.82;5.32;;;;;;;22.86;64.54;99375.53;4858730;29;20041;-95
2022/07/26 02:59:26;;;;;;;5.97;4.15;;;;;;;23.02;64.21;99396.84;4871593;29;20049;-93
2022/07/26 03:01:51;;;;;;;6.72;3.78;;;;;;;22.92;63.79;99360.81;4870426;29;20044;-94
2022/07/26 03:04:17;;;;;;;6.72;4.15;;;;;;;22.96;64.22;99375.78;4856295;29;20041;-92
2022/07/26 03:06:42;;;;;;;5.50;3.08;;;;;;;22.83;64.01;99367.69;4857848;29;20045;-89
2022/07/26 03:09:09;;;;;;;6.72;4.32;;;;;;;22.64;64.55;99378.91;4856600;29;20599;-95
2022/07/26 03:11:34;;;;;;;9.43;5.03;;;;;;;22.88;64.17;99379.00;4876058;29;20033;-94
2022/07/26 03:14:00;;;;;;;6.38;3.83;;;;;;;22.89;64.70;99386.97;4866302;29;20021;-92
2022/07/26 03:16:26;;;;;;;5.65;3.50;;;;;;;22.82;64.36;99353.41;4865751;29;20030;-95
2022/07/26 03:18:51;;;;;;;7.38;4.35;;;;;;;23.08;64.02;99385.66;4873599;29;20093;-90
2022/07/26 03:21:17;;;;;;;6.60;4.03;;;;;;;22.97;63.58;99372.97;4879929;29;20393;-93
2022/07/26 03:23:49;;;;;;;6.50;3.00;;;;;;;23.15;62.52;99370.81;4859814;29;20062;-94
2022/07/26 03:26:14;;;;;;;3.45;2.72;;;;;;;23.34;62.28;99412.50;4872667;29;20046;-91
2022/07/26 03:28:43;;;;;;;7.07;4.03;;;;;;;23.19;62.85;99384.91;4869284;29;20053;-93
2022/07/26 03:31:10;;;;;;;5.95;3.40;;;;;;;23.14;62.95;99385.25;4855205;29;20046;-87
2022/07/26 03:33:35;;;;;;;6.25;4.38;;;;;;;23.17;63.48;99400.28;4856742;29;20077;-93
2022/07/26 03:36:02;;;;;;;5.97;3.88;;;;;;;23.40;64.05;99410.25;4857437;29;20112;-94
2022/07/26 03:38:28;;;;;;;6.32;3.10;;;;;;;23.23;64.80;99389.97;4840288;29;20494;-94
2022/07/26 03:40:53;;;;;;;4.45;2.72;;;;;;;23.30;64.95;99395.75;4843164;29;20124;-85
2022/07/26 03:43:19;;;;;;;8.02;4.20;;;;;;;23.50;65.13;99412.28;4854934;29;20037;-86
2022/07/26 03:45:45;;;;;;;5.40;3.55;;;;;;;23.54;64.84;99419.13;4855997;29;20037;-84
2022/07/26 03:48:10;;;;;;;5.88;4.15;;;;;;;23.31;64.58;99372.38;4855376;29;20499;-86
2022/07/26 03:50:36;;;;;;;3.90;2.72;;;;;;;23.36;64.18;99383.69;4856206;29;20441;-84
2022/07/26 03:53:02;;;;;;;6.13;2.75;;;;;;;23.67;64.55;99406.50;4854962;29;20053;-86
2022/07/26 03:58:11;;;;;;;5.30;3.38;;;;;;;23.93;61.82;99401.91;4846353;29;20056;-85
2022/07/26 04:00:37;;;;;;;2.97;2.53;;;;;;;23.86;64.32;99402.47;4854482;29;20034;-85
2022/07/26 04:03:02;;;;;;;4.25;2.90;;;;;;;24.05;64.15;99393.84;4848681;29;20038;-86
2022/07/26 04:05:28;;;;;;;5.93;4.10;;;;;;;24.23;63.22;99402.38;4870663;29;20097;-86
2022/07/26 04:07:53;;;;;;;4.70;3.63;;;;;;;24.23;63.28;99403.22;4855416;29;20033;-86
2022/07/26 04:10:20;;;;;;;5.85;4.00;;;;;;;24.36;62.95;99427.44;4850501;29;20174;-85
2022/07/26 04:12:46;;;;;;;7.82;5.57;;;;;;;24.32;63.01;99393.59;4837959;29;20034;-86
2022/07/26 04:15:11;;;;;;;7.60;4.78;;;;;;;24.48;62.45;99394.13;4854688;29;20730;-86
2022/07/26 04:17:40;;;;;;;8.07;5.63;;;;;;;24.47;62.21;99391.56;4854787;29;20135;-85
2022/07/26 04:20:07;;;;;;;6.57;5.07;;;;;;;24.79;62.22;99416.03;4854156;29;20042;-86
2022/07/26 04:22:34;;;;;;;7.10;4.55;;;;;;;24.88;61.35;99417.13;4854103;29;21101;-85
2022/07/26 04:25:00;;;;;;;9.98;5.13;;;;;;;24.70;60.52;99378.13;4855160;29;20036;-87
2022/07/26 04:27:26;;;;;;;7.90;6.00;;;;;;;24.73;61.68;99362.56;4854903;29;20041;-85
2022/07/26 04:29:51;;;;;;;9.35;4.70;;;;;;;25.21;61.02;99423.53;4855467;29;20079;-87
2022/07/26 04:32:17;;;;;;;5.72;4.10;;;;;;;25.29;61.45;99425.66;4855386;29;20482;-84
2022/07/26 04:34:42;;;;;;;8.63;6.47;;;;;;;25.51;59.61;99406.69;4855772;29;20064;-84
2022/07/26 04:37:07;;;;;;;7.35;5.40;;;;;;;25.34;59.75;99405.38;4855365;29;20041;-85
2022/07/26 04:39:33;;;;;;;8.88;4.38;;;;;;;25.10;60.93;99374.94;4855021;29;20124;-86
2022/07/26 04:41:58;;;;;;;11.15;7.45;;;;;;;25.46;60.94;99416.19;4854421;29;20101;-83
2022/07/26 04:44:24;;;;;;;10.68;5.10;;;;;;;25.62;59.35;99416.63;4855257;29;20044;-83
2022/07/26 04:46:49;;;;;;;7.03;4.57;;;;;;;25.22;59.40;99387.44;4855111;29;20029;-84
2022/07/26 04:49:15;;;;;;;11.38;5.20;;;;;;;25.11;60.12;99393.72;4852570;29;20033;-85
2022/07/26 04:51:40;;;;;;;7.03;5.00;;;;;;;25.27;60.60;99401.44;4847264;29;20841;-83
2022/07/26 04:54:06;;;;;;;6.78;5.45;;;;;;;25.71;59.02;99415.00;4864964;29;20047;-82
2022/07/26 04:56:31;;;;;;;5.90;3.35;;;;;;;25.83;58.80;99416.69;4854871;29;20069;-82
2022/07/26 04:58:57;;;;;;;7.90;4.35;;;;;;;25.95;58.17;99368.91;4854813;29;20041;-82
2022/07/26 05:01:22;;;;;;;6.95;4.60;;;;;;;26.39;57.64;99407.50;4855794;29;20030;-83
2022/07/26 05:03:48;;;;;;;6.25;4.53;;;;;;;26.48;57.27;99403.19;4855097;29;20397;-83
2022/07/26 05:06:13;;;;;;;7.25;4.55;;;;;;;25.62;57.15;99383.38;4855689;29;20029;-83
2022/07/26 05:08:42;;;;;;;8.18;5.13;;;;;;;25.67;58.68;99386.53;4855205;29;20124;-82
2022/07/26 05:11:07;;;;;;;6.13;3.72;;;;;;;25.84;56.98;99415.72;4855188;29;20041;-83
2022/07/26 05:13:33;;;;;;;7.30;4.72;;;;;;;25.72;57.70;99365.44;4854915;29;20151;-83
2022/07/26 05:15:59;;;;;;;7.00;4.05;;;;;;;25.60;59.80;99378.09;4855389;29;20537;-83
2022/07/26 05:18:25;;;;;;;7.75;4.70;;;;;;;26.23;58.69;99404.44;4855349;29;20038;-83
2022/07/26 05:20:51;;;;;;;7.35;4.32;;;;;;;25.86;58.65;99375.06;4869506;29;20573;-83
2022/07/26 05:23:18;;;;;;;8.38;5.15;;;;;;;26.07;58.82;99369.72;4854726;29;20543;-83
2022/07/26 05:25:44;;;;;;;8.82;5.40;;;;;;;26.23;56.61;99382.81;4854611;29;20465;-83
2022/07/26 05:28:09;;;;;;;9.73;5.25;;;;;;;26.18;58.27;99414.75;4854389;29;20136;-83
2022/07/26 05:30:35;;;;;;;7.43;4.05;;;;;;;26.51;57.45;99386.69;4854927;29;20044;-83
2022/07/26 05:33:00;;;;;;;7.95;4.40;;;;;;;27.13;55.60;99394.88;4854832;29;20044;-83
2022/07/26 05:35:26;;;;;;;7.80;5.32;;;;;;;27.66;54.36;99389.19;4854984;29;20121;-83
2022/07/26 05:37:51;;;;;;;9.60;5.30;;;;;;;27.57;52.34;99378.34;4854730;29;20034;-84
2022/07/26 05:40:17;;;;;;;6.45;4.93;;;;;;;27.43;52.23;99383.16;4854816;29;20497;-83
2022/07/26 05:42:42;;;;;;;9.18;5.70;;;;;;;27.26;51.99;99379.22;4854820;29;20068;-84
2022/07/26 05:45:08;;;;;;;8.43;5.15;;;;;;;27.85;52.72;99404.63;4854489;29;20054;-83
2022/07/26 05:47:34;;;;;;;7.63;5.45;;;;;;;27.41;51.93;99354.50;4854453;29;20033;-85
2022/07/26 05:50:00;;;;;;;9.23;4.63;;;;;;;27.62;51.17;99376.06;4854836;29;20034;-83
2022/07/26 05:52:25;;;;;;;10.48;5.50;;;;;;;27.91;51.50;99403.19;4854673;29;20824;-83
2022/07/26 05:54:51;;;;;;;11.63;6.68;;;;;;;28.22;51.40;99387.69;4857381;29;20037;-83
2022/07/26 05:57:16;;;;;;;6.90;5.05;;;;;;;28.35;50.44;99368.41;4858159;29;20136;-84
2022/07/26 05:59:42;;;;;;;10.52;6.25;;;;;;;28.71;49.60;99405.75;4858242;29;20128;-85
2022/07/26 06:02:07;;;;;;;10.20;4.90;;;;;;;28.36;50.03;99367.41;4858545;29;20033;-85
2022/07/26 06:04:33;;;;;;;12.73;9.40;;;;;;;29.19;47.96;99402.00;4856954;29;20033;-83
2022/07/26 06:06:59;;;;;;;10.02;6.80;;;;;;;29.15;47.54;99381.63;4858257;29;20041;-84
2022/07/26 06:09:25;;;;;;;10.68;7.30;;;;;;;29.21;46.56;99353.88;4858267;29;20444;-84
2022/07/26 06:11:51;;;;;;;10.40;5.90;;;;;;;29.55;47.11;99383.13;4858383;29;20041;-84
2022/07/26 06:14:18;;;;;;;9.95;6.82;;;;;;;29.95;46.88;99371.00;4858067;29;20034;-84
2022/07/26 06:16:45;;;;;;;12.73;6.15;;;;;;;29.80;47.36;99359.81;4856747;29;20621;-84
2022/07/26 06:19:10;;;;;;;8.43;5.82;;;;;;;30.27;46.45;99393.19;4858163;29;20040;-84
2022/07/26 06:21:36;;;;;;;7.53;5.88;;;;;;;30.17;46.35;99366.09;4858457;29;20432;-84
2022/07/26 06:24:01;;;;;;;13.25;8.68;;;;;;;30.69;44.59;99363.44;4858091;29;20033;-85
2022/07/26 06:26:27;;;;;;;10.80;8.35;;;;;;;31.11;43.83;99361.81;4857823;29;20048;-84
2022/07/26 06:28:52;;;;;;;8.50;6.10;;;;;;;30.62;43.56;99375.97;4858058;29;20034;-84
2022/07/26 06:31:18;;;;;;;7.28;4.60;;;;;;;30.75;43.30;99347.47;4858353;29;20037;-83
2022/07/26 06:33:43;;;;;;;7.78;5.45;;;;;;;31.27;42.43;99339.22;4857940;29;20061;-84
2022/07/26 06:36:09;;;;;;;8.70;5.32;;;;;;;31.22;41.92;99364.25;4857652;29;20200;-83
2022/07/26 06:38:34;;;;;;;7.85;5.53;;;;;;;31.62;41.63;99341.91;4857715;29;20405;-83
2022/07/26 06:41:00;;;;;;;9.05;5.85;;;;;;;31.13;41.83;99350.78;4857721;29;20040;-84
2022/07/26 06:43:26;;;;;;;7.53;4.78;;;;;;;31.31;41.88;99356.09;4857534;29;20194;-83
2022/07/26 06:45:51;;;;;;;9.43;6.03;;;;;;;31.64;41.00;99348.03;4857651;29;20041;-84
2022/07/26 06:48:17;;;;;;;11.57;7.53;;;;;;;31.54;41.15;99331.84;4857789;29;20120;-83
2022/07/26 06:50:42;;;;;;;7.00;5.13;;;;;;;31.40;43.13;99363.28;4857497;29;20540;-84
2022/07/26 06:53:08;;;;;;;9.07;6.97;;;;;;;30.83;42.63;99309.41;4857790;29;20033;-83
2022/07/26 06:55:33;;;;;;;8.20;6.15;;;;;;;31.67;43.46;99355.88;4857839;29;20519;-84
2022/07/26 06:57:59;;;;;;;7.82;5.30;;;;;;;31.81;41.03;99344.31;4857394;29;20069;-83
2022/07/26 07:00:24;;;;;;;9.38;5.25;;;;;;;31.74;42.58;99321.47;4857298;29;20128;-82
2022/07/26 07:02:50;;;;;;;5.97;4.63;;;;;;;32.05;40.96;99321.66;4857093;29;20034;-83
2022/07/26 07:05:16;;;;;;;8.18;5.65;;;;;;;32.30;39.44;99322.53;4856884;29;20481;-83
2022/07/26 07:07:41;;;;;;;9.13;5.47;;;;;;;32.54;39.64;99333.59;4857074;29;20501;-83
2022/07/26 07:10:07;;;;;;;8.57;6.38;;;;;;;33.25;38.27;99326.38;4857260;29;20069;-84
2022/07/26 07:12:33;;;;;;;11.00;6.90;;;;;;;33.34;39.05;99336.22;4857132;29;20033;-83
2022/07/26 07:14:59;;;;;;;7.70;5.05;;;;;;;33.21;37.76;99319.56;4857023;29;20124;-84
2022/07/26 07:17:24;;;;;;;7.65;5.50;;;;;;;33.05;38.02;99336.00;4856977;29;20077;-84
2022/07/26 07:19:50;;;;;;;6.70;4.53;;;;;;;32.92;37.79;99352.94;4857293;29;20032;-83
2022/07/26 07:22:15;;;;;;;10.00;5.63;;;;;;;33.04;39.38;99324.22;4857000;29;20452;-85
2022/07/26 07:24:41;;;;;;;7.47;5.32;;;;;;;33.95;36.67;99338.25;4857050;29;20077;-85
2022/07/26 07:27:07;;;;;;;7.40;5.55;;;;;;;33.80;36.54;99324.53;4856732;29;20089;-83
2022/07/26 07:29:33;;;;;;;7.72;5.78;;;;;;;34.13;36.01;99346.16;4856900;29;20038;-84
2022/07/26 07:31:59;;;;;;;11.23;7.38;;;;;;;33.93;36.60;99348.53;4856992;29;20492;-83
2022/07/26 07:34:25;;;;;;;5.85;4.50;;;;;;;33.96;36.10;99311.75;4856804;29;20045;-83
2022/07/26 07:36:51;;;;;;;9.15;5.32;;;;;;;33.75;36.28;99305.06;4855158;29;20045;-84
2022/07/26 07:39:17;;;;;;;10.68;7.97;;;;;;;33.90;35.77;99332.47;4856932;29;20059;-84
2022/07/26 07:41:44;;;;;;;8.30;4.95;;;;;;;33.90;36.84;99338.78;4856585;29;20424;-85
2022/07/26 07:44:10;;;;;;;8.93;6.00;;;;;;;33.71;38.10;99317.38;4856788;29;20049;-84
2022/07/26 07:46:35;;;;;;;9.68;5.03;;;;;;;34.43;36.71;99336.16;4870903;29;20050;-85
2022/07/26 07:49:01;;;;;;;8.65;6.25;;;;;;;34.38;35.08;99329.53;4856754;29;20068;-84
2022/07/26 07:51:27;;;;;;;7.93;5.90;;;;;;;34.14;37.12;99304.06;4856454;29;20061;-83
2022/07/26 07:53:53;;;;;;;8.25;5.68;;;;;;;34.46;35.32;99326.69;4856014;29;20124;-85
2022/07/26 07:56:19;;;;;;;8.45;6.53;;;;;;;33.69;35.75;99305.75;4856301;29;20044;-85
2022/07/26 07:58:44;;;;;;;9.05;6.50;;;;;;;33.83;37.49;99313.22;4856282;29;20045;-86
2022/07/26 08:01:09;;;;;;;9.02;6.38;;;;;;;33.44;37.10;99327.81;4856052;29;20534;-85
2022/07/26 08:03:35;;;;;;;10.88;7.38;;;;;;;33.55;37.68;99312.88;4856154;29;20044;-85
2022/07/26 08:06:04;;;;;;;9.10;6.22;;;;;;;34.46;35.44;99339.53;4856575;29;20116;-85
2022/07/26 08:08:29;;;;;;;8.20;5.68;;;;;;;34.95;35.68;99325.34;4856268;29;20777;-85
2022/07/26 08:10:55;;;;;;;8.20;6.47;;;;;;;34.32;35.70;99303.75;4856264;29;20045;-86
2022/07/26 08:13:21;;;;;;;9.23;6.63;;;;;;;33.88;36.05;99313.53;4856061;29;20042;-85
2022/07/26 08:15:47;;;;;;;11.23;6.25;;;;;;;33.92;37.16;99333.13;4855529;29;20026;-84
2022/07/26 08:18:13;;;;;;;8.30;5.95;;;;;;;34.48;34.84;99326.50;4855497;29;20044;-85
2022/07/26 08:20:38;;;;;;;9.48;6.18;;;;;;;34.74;34.45;99301.41;4856122;29;20762;-87
2022/07/26 08:23:04;;;;;;;8.63;6.43;;;;;;;34.97;33.85;99306.81;4854770;29;20044;-85
2022/07/26 08:25:29;;;;;;;13.18;7.10;;;;;;;35.13;33.72;99306.59;4856127;29;20034;-84
2022/07/26 08:27:55;;;;;;;8.68;6.63;;;;;;;35.30;33.13;99279.00;4856006;29;20120;-84
2022/07/26 08:30:20;;;;;;;9.57;6.88;;;;;;;35.79;33.16;99285.63;4855914;29;20527;-84
2022/07/26 08:32:46;;;;;;;8.88;5.85;;;;;;;34.89;35.88;99274.88;4856051;29;20057;-86
2022/07/26 08:35:11;;;;;;;8.88;6.65;;;;;;;34.83;36.05;99303.03;4855525;29;20057;-87
2022/07/26 08:37:37;;;;;;;8.75;6.25;;;;;;;34.96;34.69;99286.78;4855925;29;20081;-85
2022/07/26 08:40:04;;;;;;;7.50;5.75;;;;;;;34.07;35.41;99283.94;4855707;29;20033;-85
2022/07/26 08:42:29;;;;;;;9.60;6.18;;;;;;;34.43;34.71;99280.53;4855698;29;20172;-87
2022/07/26 08:44:55;;;;;;;8.48;6.05;;;;;;;34.96;34.30;99269.50;4855575;29;20116;-85
2022/07/26 08:47:21;;;;;;;8.35;6.20;;;;;;;35.21;33.37;99280.13;4855349;29;20065;-85
2022/07/26 08:49:47;;;;;;;10.85;7.40;;;;;;;34.79;33.23;99272.47;4855392;29;20518;-85
2022/07/26 08:52:13;;;;;;;10.90;6.43;;;;;;;34.49;36.68;99284.41;4854031;29;20049;-84
2022/07/26 08:54:47;;;;;;;7.80;5.90;;;;;;;34.89;34.43;99285.84;4855698;29;20097;-84
2022/07/26 08:57:13;;;;;;;7.97;6.65;;;;;;;34.53;35.47;99272.06;4852154;29;20120;-85
2022/07/26 08:59:39;;;;;;;8.82;6.53;;;;;;;34.77;37.31;99269.06;4855557;29;20044;-84
2022/07/26 09:02:06;;;;;;;9.32;6.18;;;;;;;34.64;36.96;99276.22;4855042;29;20080;-84
2022/07/26 09:04:36;;;;;;;8.35;5.78;;;;;;;35.74;33.05;99277.97;4854086;29;20052;-84
2022/07/26 09:07:17;;;;;;;8.50;6.07;;;;;;;35.78;32.23;99268.34;4855244;29;20038;-84
2022/07/26 09:09:57;;;;;;;12.05;6.20;;;;;;;35.99;33.98;99278.44;4855031;29;20501;-84
2022/07/26 09:12:23;;;;;;;7.15;5.28;;;;;;;35.84;32.90;99251.09;4854626;29;20038;-85
2022/07/26 09:14:50;;;;;;;8.05;5.38;;;;;;;35.34;34.38;99261.13;4854637;29;20128;-84
2022/07/26 09:17:18;;;;;;;6.80;4.82;;;;;;;35.54;37.00;99255.84;4855104;29;20041;-83
2022/07/26 09:19:45;;;;;;;6.53;4.70;;;;;;;35.35;33.36;99246.38;4855073;29;20029;-83
2022/07/26 09:22:13;;;;;;;6.40;4.68;;;;;;;35.30;33.97;99252.44;4854928;29;20536;-86
2022/07/26 09:24:45;;;;;;;5.07;3.50;;;;;;;35.52;33.21;99259.84;4855017;29;20072;-86
2022/07/26 09:27:13;;;;;;;6.47;4.15;;;;;;;35.81;34.09;99256.97;4854751;29;20577;-85
2022/07/26 09:29:49;;;;;;;7.10;4.75;;;;;;;35.92;32.46;99262.97;4855498;29;20033;-82
2022/07/26 09:32:22;;;;;;;8.45;5.05;;;;;;;36.14;33.25;99258.28;4855070;29;20041;-86
2022/07/26 09:34:51;;;;;;;6.00;4.10;;;;;;;36.43;32.63;99237.19;4854841;29;20050;-84
2022/07/26 09:37:16;;;;;;;5.63;3.95;;;;;;;36.44;31.36;99244.38;4854871;29;20036;-82
2022/07/26 09:39:59;;;;;;;7.35;4.88;;;;;;;36.20;31.86;99219.91;4854834;29;20037;-85
2022/07/26 09:42:26;;;;;;;5.85;4.32;;;;;;;36.29;32.19;99209.66;4854865;29;20041;-87
2022/07/26 09:44:53;;;;;;;7.60;5.22;;;;;;;36.55;33.19;99243.81;4854753;29;20034;-85
2022/07/26 09:47:19;;;;;;;7.25;3.95;;;;;;;36.21;32.69;99220.78;4854873;29;20051;-85
2022/07/26 09:49:45;;;;;;;8.77;5.32;;;;;;;36.27;32.40;99219.13;4854911;29;20037;-85
2022/07/26 09:52:20;;;;;;;6.93;4.15;;;;;;;36.13;31.18;99213.53;4854863;29;20041;-84
2022/07/26 09:54:48;;;;;;;6.03;3.88;;;;;;;36.53;31.69;99229.41;4854841;29;20068;-85
2022/07/26 09:57:20;;;;;;;7.78;4.65;;;;;;;35.98;32.00;99218.28;4854688;29;20120;-85
2022/07/26 09:59:46;;;;;;;6.68;4.57;;;;;;;36.58;33.36;99220.56;4853578;29;20173;-85
2022/07/26 10:02:13;;;;;;;9.40;5.05;;;;;;;36.67;31.44;99214.72;4854691;29;20040;-85
2022/07/26 10:04:42;;;;;;;6.30;4.03;;;;;;;36.78;31.78;99217.94;4855019;29;20037;-85
2022/07/26 10:07:09;;;;;;;7.55;4.90;;;;;;;36.74;31.13;99212.84;4854464;29;20047;-85
2022/07/26 10:09:58;;;;;;;8.13;4.55;;;;;;;36.29;31.90;99209.66;4854636;29;20037;-85
2022/07/26 10:12:27;;;;;;;5.85;3.92;;;;;;;36.21;31.74;99185.91;4854848;29;20053;-85
2022/07/26 10:14:54;;;;;;;5.47;3.90;;;;;;;36.72;30.90;99159.16;4854428;29;20512;-85
2022/07/26 10:17:28;;;;;;;9.00;4.43;;;;;;;37.07;30.13;99203.88;4854693;29;20041;-86
2022/07/26 10:19:55;;;;;;;6.20;3.85;;;;;;;36.74;30.72;99190.03;4854651;29;20049;-87
2022/07/26 10:22:31;;;;;;;4.78;3.70;;;;;;;36.69;30.35;99193.38;4854655;29;20126;-85
2022/07/26 10:25:30;;;;;;;5.78;4.22;;;;;;;35.98;29.73;99163.41;4854225;29;20033;-86
2022/07/26 10:27:56;;;;;;;5.82;4.00;;;;;;;36.44;29.11;99192.19;4847479;29;20053;-86
2022/07/26 10:30:26;;;;;;;6.30;4.20;;;;;;;36.68;30.42;99191.66;4854389;29;20033;-86
2022/07/26 10:33:00;;;;;;;7.20;4.25;;;;;;;36.57;33.10;99186.78;4854323;29;20033;-85
2022/07/26 10:35:32;;;;;;;9.93;4.45;;;;;;;36.97;30.53;99175.09;4853841;29;20082;-86
2022/07/26 10:38:01;;;;;;;5.95;4.22;;;;;;;37.30;29.33;99169.69;4854088;29;20041;-84
2022/07/26 10:40:30;;;;;;;8.07;5.80;;;;;;;36.91;29.16;99169.38;4855894;29;20036;-85
2022/07/26 10:43:13;;;;;;;5.45;4.47;;;;;;;37.21;30.81;99151.69;4857570;29;20037;-85
2022/07/26 10:45:39;;;;;;;6.22;4.10;;;;;;;36.91;28.28;99163.03;4857668;29;20041;-85
2022/07/26 10:48:23;;;;;;;6.72;4.63;;;;;;;36.61;26.81;99165.22;4857457;29;20030;-85
2022/07/26 10:50:52;;;;;;;6.78;4.22;;;;;;;36.90;26.60;99136.63;4857483;29;20120;-86
2022/07/26 10:53:24;;;;;;;5.47;3.88;;;;;;;36.54;26.32;99162.47;4858211;29;20082;-84
2022/07/26 10:55:52;;;;;;;6.75;3.55;;;;;;;36.83;28.63;99144.00;4857849;29;20034;-87
2022/07/26 10:58:19;;;;;;;5.80;3.70;;;;;;;37.25;25.96;99151.09;4857329;29;20586;-86
2022/07/26 11:01:03;;;;;;;15.00;4.30;;;;;;;36.73;26.53;99126.00;4857382;29;20040;-85
2022/07/26 11:03:40;;;;;;;5.07;3.38;;;;;;;36.77;26.91;99129.19;4856888;29;20037;-85
2022/07/26 11:06:12;;;;;;;5.20;3.42;;;;;;;37.61;24.87;99141.56;4856591;29;20048;-84
2022/07/26 11:08:38;;;;;;;4.43;3.08;;;;;;;37.39;26.62;99118.09;4857259;29;20044;-84
2022/07/26 11:11:04;;;;;;;4.28;3.10;;;;;;;37.57;23.81;99110.06;4857290;29;20497;-85
2022/07/26 11:13:32;;;;;;;4.43;2.72;;;;;;;37.43;25.01;99100.09;4856859;29;20044;-85
2022/07/26 11:16:02;;;;;;;3.47;2.30;;;;;;;37.62;24.43;99090.16;4856787;29;20116;-84
2022/07/26 11:18:31;;;;;;;4.10;2.72;;;;;;;37.69;22.51;99114.91;4856497;29;20097;-84
2022/07/26 11:21:07;;;;;;;4.75;3.13;;;;;;;37.37;22.87;99118.31;4856613;29;20549;-85
2022/07/26 11:23:34;;;;;;;6.80;3.90;;;;;;;37.78;24.59;99091.63;4856852;29;20041;-84
2022/07/26 11:26:03;;;;;;;4.38;2.80;;;;;;;37.55;24.25;99087.41;4856814;29;20047;-86
2022/07/26 11:28:29;;;;;;;4.97;3.50;;;;;;;37.89;24.58;99093.72;4857318;29;20053;-85
2022/07/26 11:30:56;;;;;;;4.57;3.47;;;;;;;37.66;23.70;99057.56;4856992;29;20109;-85
2022/07/26 11:33:41;;;;;;;4.43;2.70;;;;;;;37.51;25.70;99063.28;4856864;29;20132;-86
2022/07/26 11:36:07;;;;;;;6.35;4.10;;;;;;;37.71;25.29;99074.28;4857129;29;20044;-85